sensor_id;sensor_type;location;lat;lon;timestamp;P1;durP1;ratioP1;P2;durP2;ratioP2
14118;SDS011;7138;49.246;9.100;2023-06-22T00:01:51;11.63;;;4.32;;
14118;SDS011;7138;49.246;9.100;2023-06-22T00:04:17;7.95;;;4.95;;
14118;SDS011;7138;49.246;9.100;2023-06-22T00:06:43;7.18;;;4.63;;
14118;SDS011;7138;49.246;9.100;2023-06-22T00:09:08;7.43;;;4.45;;
14118;SDS011;7138;49.246;9.100;2023-06-22T00:11:35;7.82;;;4.57;;
14118;SDS011;7138;49.246;9.100;2023-06-22T00:14:01;7.57;;;4.60;;
14118;SDS011;7138;49.246;9.100;2023-06-22T00:16:28;7.68;;;4.70;;
14118;SDS011;7138;49.246;9.100;2023-06-22T00:18:56;8.70;;;5.37;;
14118;SDS011;7138;49.246;9.100;2023-06-22T00:21:25;10.03;;;5.17;;
14118;SDS011;7138;49.246;9.100;2023-06-22T00:23:51;8.55;;;5.10;;
14118;SDS011;7138;49.246;9.100;2023-06-22T00:26:17;9.68;;;5.10;;
14118;SDS011;7138;49.246;9.100;2023-06-22T00:28:43;7.45;;;4.90;;
14118;SDS011;7138;49.246;9.100;2023-06-22T00:31:09;7.22;;;4.78;;
14118;SDS011;7138;49.246;9.100;2023-06-22T00:33:36;7.10;;;5.28;;
14118;SDS011;7138;49.246;9.100;2023-06-22T00:36:02;7.05;;;4.55;;
14118;SDS011;7138;49.246;9.100;2023-06-22T00:38:29;9.98;;;5.10;;
14118;SDS011;7138;49.246;9.100;2023-06-22T00:40:55;7.80;;;5.38;;
14118;SDS011;7138;49.246;9.100;2023-06-22T00:43:21;6.93;;;4.80;;
14118;SDS011;7138;49.246;9.100;2023-06-22T00:45:47;8.77;;;5.32;;
14118;SDS011;7138;49.246;9.100;2023-06-22T00:48:13;7.82;;;5.05;;
14118;SDS011;7138;49.246;9.100;2023-06-22T00:50:41;9.30;;;5.28;;
14118;SDS011;7138;49.246;9.100;2023-06-22T00:53:07;9.45;;;5.55;;
14118;SDS011;7138;49.246;9.100;2023-06-22T00:55:35;8.95;;;5.45;;
14118;SDS011;7138;49.246;9.100;2023-06-22T00:58:05;9.52;;;5.20;;
14118;SDS011;7138;49.246;9.100;2023-06-22T01:00:35;10.82;;;5.78;;
14118;SDS011;7138;49.246;9.100;2023-06-22T01:03:03;9.05;;;5.40;;
14118;SDS011;7138;49.246;9.100;2023-06-22T01:05:34;9.05;;;5.32;;
14118;SDS011;7138;49.246;9.100;2023-06-22T01:08:05;8.60;;;5.00;;
14118;SDS011;7138;49.246;9.100;2023-06-22T01:10:46;9.15;;;5.40;;
14118;SDS011;7138;49.246;9.100;2023-06-22T01:13:22;9.30;;;5.45;;
14118;SDS011;7138;49.246;9.100;2023-06-22T01:15:55;8.55;;;5.10;;
14118;SDS011;7138;49.246;9.100;2023-06-22T01:18:26;9.93;;;5.45;;
14118;SDS011;7138;49.246;9.100;2023-06-22T01:20:58;10.50;;;5.72;;
14118;SDS011;7138;49.246;9.100;2023-06-22T01:23:28;8.70;;;5.60;;
14118;SDS011;7138;49.246;9.100;2023-06-22T01:26:15;10.73;;;6.18;;
14118;SDS011;7138;49.246;9.100;2023-06-22T01:28:49;9.30;;;6.32;;
14118;SDS011;7138;49.246;9.100;2023-06-22T01:31:20;11.68;;;6.47;;
14118;SDS011;7138;49.246;9.100;2023-06-22T01:33:50;12.02;;;6.25;;
14118;SDS011;7138;49.246;9.100;2023-06-22T01:36:31;9.45;;;6.57;;
14118;SDS011;7138;49.246;9.100;2023-06-22T01:38:58;8.88;;;6.13;;
14118;SDS011;7138;49.246;9.100;2023-06-22T01:41:27;8.95;;;5.82;;
14118;SDS011;7138;49.246;9.100;2023-06-22T01:43:58;9.43;;;5.80;;
14118;SDS011;7138;49.246;9.100;2023-06-22T01:46:26;11.13;;;5.90;;
14118;SDS011;7138;49.246;9.100;2023-06-22T01:48:52;11.35;;;6.45;;
14118;SDS011;7138;49.246;9.100;2023-06-22T01:51:19;13.45;;;6.50;;
14118;SDS011;7138;49.246;9.100;2023-06-22T01:53:45;10.98;;;6.32;;
14118;SDS011;7138;49.246;9.100;2023-06-22T01:56:12;8.68;;;6.05;;
14118;SDS011;7138;49.246;9.100;2023-06-22T01:58:44;11.00;;;6.90;;
14118;SDS011;7138;49.246;9.100;2023-06-22T02:01:23;11.20;;;6.20;;
14118;SDS011;7138;49.246;9.100;2023-06-22T02:03:57;9.20;;;6.65;;
14118;SDS011;7138;49.246;9.100;2023-06-22T02:06:31;9.55;;;6.60;;
14118;SDS011;7138;49.246;9.100;2023-06-22T02:09:04;10.73;;;6.75;;
14118;SDS011;7138;49.246;9.100;2023-06-22T02:11:36;14.00;;;7.15;;
14118;SDS011;7138;49.246;9.100;2023-06-22T02:14:04;11.82;;;7.10;;
14118;SDS011;7138;49.246;9.100;2023-06-22T02:16:33;8.18;;;7.05;;
14118;SDS011;7138;49.246;9.100;2023-06-22T02:19:00;9.32;;;6.75;;
14118;SDS011;7138;49.246;9.100;2023-06-22T02:21:31;11.10;;;6.82;;
14118;SDS011;7138;49.246;9.100;2023-06-22T02:23:57;10.43;;;6.90;;
14118;SDS011;7138;49.246;9.100;2023-06-22T02:26:23;9.50;;;7.35;;
14118;SDS011;7138;49.246;9.100;2023-06-22T02:28:51;10.48;;;7.00;;
14118;SDS011;7138;49.246;9.100;2023-06-22T02:31:18;10.38;;;6.93;;
14118;SDS011;7138;49.246;9.100;2023-06-22T02:33:46;12.30;;;7.18;;
14118;SDS011;7138;49.246;9.100;2023-06-22T02:36:13;11.95;;;6.90;;
14118;SDS011;7138;49.246;9.100;2023-06-22T02:38:40;9.52;;;7.40;;
14118;SDS011;7138;49.246;9.100;2023-06-22T02:41:12;9.60;;;7.03;;
14118;SDS011;7138;49.246;9.100;2023-06-22T02:46:09;12.15;;;7.28;;
14118;SDS011;7138;49.246;9.100;2023-06-22T02:48:35;9.82;;;7.30;;
14118;SDS011;7138;49.246;9.100;2023-06-22T02:51:02;11.13;;;7.35;;
14118;SDS011;7138;49.246;9.100;2023-06-22T02:53:28;11.15;;;8.35;;
14118;SDS011;7138;49.246;9.100;2023-06-22T02:55:55;10.85;;;7.65;;
14118;SDS011;7138;49.246;9.100;2023-06-22T02:58:21;11.05;;;7.70;;
14118;SDS011;7138;49.246;9.100;2023-06-22T03:00:46;12.38;;;7.72;;
14118;SDS011;7138;49.246;9.100;2023-06-22T03:03:12;11.65;;;8.10;;
14118;SDS011;7138;49.246;9.100;2023-06-22T03:05:38;11.90;;;7.75;;
14118;SDS011;7138;49.246;9.100;2023-06-22T03:08:06;11.57;;;7.93;;
14118;SDS011;7138;49.246;9.100;2023-06-22T03:10:32;9.80;;;7.85;;
14118;SDS011;7138;49.246;9.100;2023-06-22T03:12:58;15.10;;;8.20;;
14118;SDS011;7138;49.246;9.100;2023-06-22T03:15:24;15.43;;;8.32;;
14118;SDS011;7138;49.246;9.100;2023-06-22T03:17:50;10.95;;;7.57;;
14118;SDS011;7138;49.246;9.100;2023-06-22T03:20:16;12.05;;;7.95;;
14118;SDS011;7138;49.246;9.100;2023-06-22T03:22:42;12.27;;;8.38;;
14118;SDS011;7138;49.246;9.100;2023-06-22T03:25:10;15.30;;;8.70;;
14118;SDS011;7138;49.246;9.100;2023-06-22T03:27:38;13.05;;;8.23;;
14118;SDS011;7138;49.246;9.100;2023-06-22T03:30:04;11.60;;;8.25;;
14118;SDS011;7138;49.246;9.100;2023-06-22T03:32:33;10.77;;;8.07;;
14118;SDS011;7138;49.246;9.100;2023-06-22T03:34:59;13.07;;;8.48;;
14118;SDS011;7138;49.246;9.100;2023-06-22T03:37:25;12.32;;;8.77;;
14118;SDS011;7138;49.246;9.100;2023-06-22T03:39:51;11.05;;;8.05;;
14118;SDS011;7138;49.246;9.100;2023-06-22T03:42:19;12.15;;;8.32;;
14118;SDS011;7138;49.246;9.100;2023-06-22T03:44:45;11.43;;;8.05;;
14118;SDS011;7138;49.246;9.100;2023-06-22T03:47:11;10.60;;;8.32;;
14118;SDS011;7138;49.246;9.100;2023-06-22T03:49:37;15.77;;;8.40;;
14118;SDS011;7138;49.246;9.100;2023-06-22T03:52:03;12.52;;;8.02;;
14118;SDS011;7138;49.246;9.100;2023-06-22T03:54:30;12.02;;;8.32;;
14118;SDS011;7138;49.246;9.100;2023-06-22T03:56:57;12.07;;;8.60;;
14118;SDS011;7138;49.246;9.100;2023-06-22T03:59:24;13.73;;;8.63;;
14118;SDS011;7138;49.246;9.100;2023-06-22T04:01:51;13.13;;;8.27;;
14118;SDS011;7138;49.246;9.100;2023-06-22T04:04:17;11.27;;;8.88;;
14118;SDS011;7138;49.246;9.100;2023-06-22T04:06:43;12.95;;;8.40;;
14118;SDS011;7138;49.246;9.100;2023-06-22T04:09:09;15.40;;;8.45;;
14118;SDS011;7138;49.246;9.100;2023-06-22T04:11:35;11.93;;;7.97;;
14118;SDS011;7138;49.246;9.100;2023-06-22T04:14:01;13.20;;;8.82;;
14118;SDS011;7138;49.246;9.100;2023-06-22T04:16:28;13.07;;;8.20;;
14118;SDS011;7138;49.246;9.100;2023-06-22T04:18:54;12.38;;;8.70;;
14118;SDS011;7138;49.246;9.100;2023-06-22T04:21:20;15.13;;;9.30;;
14118;SDS011;7138;49.246;9.100;2023-06-22T04:23:45;13.05;;;8.57;;
14118;SDS011;7138;49.246;9.100;2023-06-22T04:26:11;9.95;;;8.00;;
14118;SDS011;7138;49.246;9.100;2023-06-22T04:28:38;12.90;;;9.35;;
14118;SDS011;7138;49.246;9.100;2023-06-22T04:31:04;10.80;;;8.98;;
14118;SDS011;7138;49.246;9.100;2023-06-22T04:33:31;14.48;;;9.38;;
14118;SDS011;7138;49.246;9.100;2023-06-22T04:35:57;11.88;;;8.90;;
14118;SDS011;7138;49.246;9.100;2023-06-22T04:38:23;10.82;;;8.25;;
14118;SDS011;7138;49.246;9.100;2023-06-22T04:40:49;11.52;;;8.63;;
14118;SDS011;7138;49.246;9.100;2023-06-22T04:43:16;11.57;;;7.93;;
14118;SDS011;7138;49.246;9.100;2023-06-22T04:45:41;12.98;;;8.18;;
14118;SDS011;7138;49.246;9.100;2023-06-22T04:48:07;11.93;;;8.45;;
14118;SDS011;7138;49.246;9.100;2023-06-22T04:50:36;13.13;;;8.45;;
14118;SDS011;7138;49.246;9.100;2023-06-22T04:53:04;12.10;;;8.02;;
14118;SDS011;7138;49.246;9.100;2023-06-22T04:55:30;10.23;;;7.65;;
14118;SDS011;7138;49.246;9.100;2023-06-22T04:57:56;10.65;;;7.72;;
14118;SDS011;7138;49.246;9.100;2023-06-22T05:00:29;10.38;;;7.55;;
14118;SDS011;7138;49.246;9.100;2023-06-22T05:02:56;12.32;;;7.85;;
14118;SDS011;7138;49.246;9.100;2023-06-22T05:05:28;10.63;;;7.60;;
14118;SDS011;7138;49.246;9.100;2023-06-22T05:07:56;9.77;;;6.95;;
14118;SDS011;7138;49.246;9.100;2023-06-22T05:10:25;10.52;;;7.07;;
14118;SDS011;7138;49.246;9.100;2023-06-22T05:12:51;10.32;;;7.05;;
14118;SDS011;7138;49.246;9.100;2023-06-22T05:15:17;10.13;;;6.68;;
14118;SDS011;7138;49.246;9.100;2023-06-22T05:17:44;9.15;;;6.50;;
14118;SDS011;7138;49.246;9.100;2023-06-22T05:20:11;11.93;;;6.80;;
14118;SDS011;7138;49.246;9.100;2023-06-22T05:22:38;8.90;;;6.45;;
14118;SDS011;7138;49.246;9.100;2023-06-22T05:25:07;9.30;;;6.43;;
14118;SDS011;7138;49.246;9.100;2023-06-22T05:27:35;10.95;;;6.93;;
14118;SDS011;7138;49.246;9.100;2023-06-22T05:30:05;10.77;;;5.93;;
14118;SDS011;7138;49.246;9.100;2023-06-22T05:32:32;11.75;;;6.40;;
14118;SDS011;7138;49.246;9.100;2023-06-22T05:34:58;7.63;;;6.00;;
14118;SDS011;7138;49.246;9.100;2023-06-22T05:37:24;10.57;;;5.80;;
14118;SDS011;7138;49.246;9.100;2023-06-22T05:39:51;10.13;;;6.13;;
14118;SDS011;7138;49.246;9.100;2023-06-22T05:42:18;11.43;;;6.03;;
14118;SDS011;7138;49.246;9.100;2023-06-22T05:44:44;6.95;;;5.45;;
14118;SDS011;7138;49.246;9.100;2023-06-22T05:47:10;7.85;;;6.05;;
14118;SDS011;7138;49.246;9.100;2023-06-22T05:49:36;10.63;;;5.90;;
14118;SDS011;7138;49.246;9.100;2023-06-22T05:52:02;9.80;;;5.97;;
14118;SDS011;7138;49.246;9.100;2023-06-22T05:54:28;10.40;;;6.35;;
14118;SDS011;7138;49.246;9.100;2023-06-22T05:56:54;8.32;;;5.45;;
14118;SDS011;7138;49.246;9.100;2023-06-22T05:59:21;13.35;;;5.75;;
14118;SDS011;7138;49.246;9.100;2023-06-22T06:01:47;7.78;;;5.28;;
14118;SDS011;7138;49.246;9.100;2023-06-22T06:04:16;9.90;;;5.67;;
14118;SDS011;7138;49.246;9.100;2023-06-22T06:06:42;9.80;;;5.00;;
14118;SDS011;7138;49.246;9.100;2023-06-22T06:09:08;9.77;;;5.65;;
14118;SDS011;7138;49.246;9.100;2023-06-22T06:11:34;10.20;;;5.43;;
14118;SDS011;7138;49.246;9.100;2023-06-22T06:14:00;8.57;;;6.43;;
14118;SDS011;7138;49.246;9.100;2023-06-22T06:16:27;7.97;;;5.60;;
14118;SDS011;7138;49.246;9.100;2023-06-22T06:18:53;9.50;;;5.75;;
14118;SDS011;7138;49.246;9.100;2023-06-22T06:21:20;8.80;;;6.07;;
14118;SDS011;7138;49.246;9.100;2023-06-22T06:23:46;8.40;;;5.38;;
14118;SDS011;7138;49.246;9.100;2023-06-22T06:26:12;8.32;;;5.88;;
14118;SDS011;7138;49.246;9.100;2023-06-22T06:28:41;8.25;;;5.43;;
14118;SDS011;7138;49.246;9.100;2023-06-22T06:31:07;10.82;;;5.65;;
14118;SDS011;7138;49.246;9.100;2023-06-22T06:33:35;10.10;;;5.68;;
14118;SDS011;7138;49.246;9.100;2023-06-22T06:36:01;8.40;;;5.72;;
14118;SDS011;7138;49.246;9.100;2023-06-22T06:38:28;8.43;;;4.95;;
14118;SDS011;7138;49.246;9.100;2023-06-22T06:40:54;11.00;;;6.05;;
14118;SDS011;7138;49.246;9.100;2023-06-22T06:43:20;8.93;;;6.40;;
14118;SDS011;7138;49.246;9.100;2023-06-22T06:45:46;12.32;;;5.75;;
14118;SDS011;7138;49.246;9.100;2023-06-22T06:48:11;9.60;;;6.10;;
14118;SDS011;7138;49.246;9.100;2023-06-22T06:50:39;10.40;;;5.72;;
14118;SDS011;7138;49.246;9.100;2023-06-22T06:53:05;9.18;;;6.50;;
14118;SDS011;7138;49.246;9.100;2023-06-22T06:55:31;8.35;;;5.72;;
14118;SDS011;7138;49.246;9.100;2023-06-22T06:57:58;11.68;;;6.80;;
14118;SDS011;7138;49.246;9.100;2023-06-22T07:00:24;9.75;;;6.22;;
14118;SDS011;7138;49.246;9.100;2023-06-22T07:02:51;10.50;;;6.40;;
14118;SDS011;7138;49.246;9.100;2023-06-22T07:05:18;10.00;;;6.13;;
14118;SDS011;7138;49.246;9.100;2023-06-22T07:07:45;8.48;;;6.18;;
14118;SDS011;7138;49.246;9.100;2023-06-22T07:10:11;8.38;;;6.25;;
14118;SDS011;7138;49.246;9.100;2023-06-22T07:12:37;8.48;;;5.85;;
14118;SDS011;7138;49.246;9.100;2023-06-22T07:15:03;13.90;;;6.55;;
14118;SDS011;7138;49.246;9.100;2023-06-22T07:17:33;11.13;;;6.28;;
14118;SDS011;7138;49.246;9.100;2023-06-22T07:19:59;7.63;;;5.45;;
14118;SDS011;7138;49.246;9.100;2023-06-22T07:22:26;8.05;;;5.95;;
14118;SDS011;7138;49.246;9.100;2023-06-22T07:24:53;8.85;;;6.53;;
14118;SDS011;7138;49.246;9.100;2023-06-22T07:27:19;9.38;;;6.22;;
14118;SDS011;7138;49.246;9.100;2023-06-22T07:29:46;12.23;;;6.07;;
14118;SDS011;7138;49.246;9.100;2023-06-22T07:32:12;14.82;;;6.28;;
14118;SDS011;7138;49.246;9.100;2023-06-22T07:34:37;9.30;;;5.50;;
14118;SDS011;7138;49.246;9.100;2023-06-22T07:37:03;11.07;;;6.20;;
14118;SDS011;7138;49.246;9.100;2023-06-22T07:39:30;10.77;;;5.88;;
14118;SDS011;7138;49.246;9.100;2023-06-22T07:41:57;8.98;;;5.20;;
14118;SDS011;7138;49.246;9.100;2023-06-22T07:44:23;7.93;;;4.93;;
14118;SDS011;7138;49.246;9.100;2023-06-22T07:46:49;10.50;;;5.25;;
14118;SDS011;7138;49.246;9.100;2023-06-22T07:49:15;8.50;;;5.30;;
14118;SDS011;7138;49.246;9.100;2023-06-22T07:51:42;6.40;;;4.65;;
14118;SDS011;7138;49.246;9.100;2023-06-22T07:54:08;9.43;;;5.00;;
14118;SDS011;7138;49.246;9.100;2023-06-22T07:56:35;8.73;;;4.85;;
14118;SDS011;7138;49.246;9.100;2023-06-22T07:59:03;9.38;;;4.85;;
14118;SDS011;7138;49.246;9.100;2023-06-22T08:01:28;7.40;;;5.10;;
14118;SDS011;7138;49.246;9.100;2023-06-22T08:03:54;12.30;;;4.78;;
14118;SDS011;7138;49.246;9.100;2023-06-22T08:06:20;6.80;;;4.43;;
14118;SDS011;7138;49.246;9.100;2023-06-22T08:08:46;7.40;;;4.57;;
14118;SDS011;7138;49.246;9.100;2023-06-22T08:11:17;10.00;;;4.88;;
14118;SDS011;7138;49.246;9.100;2023-06-22T08:13:43;8.85;;;4.95;;
14118;SDS011;7138;49.246;9.100;2023-06-22T08:16:10;9.23;;;4.72;;
14118;SDS011;7138;49.246;9.100;2023-06-22T08:18:37;8.13;;;4.63;;
14118;SDS011;7138;49.246;9.100;2023-06-22T08:21:02;8.35;;;4.25;;
14118;SDS011;7138;49.246;9.100;2023-06-22T08:23:28;6.82;;;4.78;;
14118;SDS011;7138;49.246;9.100;2023-06-22T08:25:54;11.20;;;4.70;;
14118;SDS011;7138;49.246;9.100;2023-06-22T08:28:20;8.30;;;4.75;;
14118;SDS011;7138;49.246;9.100;2023-06-22T08:30:46;11.00;;;4.97;;
14118;SDS011;7138;49.246;9.100;2023-06-22T08:33:13;9.45;;;4.95;;
14118;SDS011;7138;49.246;9.100;2023-06-22T08:35:39;9.43;;;4.90;;
14118;SDS011;7138;49.246;9.100;2023-06-22T08:38:05;8.02;;;5.00;;
14118;SDS011;7138;49.246;9.100;2023-06-22T08:40:31;7.30;;;4.53;;
14118;SDS011;7138;49.246;9.100;2023-06-22T08:42:57;8.75;;;4.63;;
14118;SDS011;7138;49.246;9.100;2023-06-22T08:45:23;8.32;;;4.70;;
14118;SDS011;7138;49.246;9.100;2023-06-22T08:47:49;9.00;;;4.95;;
14118;SDS011;7138;49.246;9.100;2023-06-22T08:50:16;7.95;;;4.82;;
14118;SDS011;7138;49.246;9.100;2023-06-22T08:52:42;7.88;;;4.85;;
14118;SDS011;7138;49.246;9.100;2023-06-22T08:55:08;9.65;;;4.35;;
14118;SDS011;7138;49.246;9.100;2023-06-22T08:57:35;8.52;;;4.15;;
14118;SDS011;7138;49.246;9.100;2023-06-22T09:00:05;9.38;;;3.55;;
14118;SDS011;7138;49.246;9.100;2023-06-22T09:02:52;8.23;;;3.88;;
14118;SDS011;7138;49.246;9.100;2023-06-22T09:05:19;7.80;;;4.45;;
14118;SDS011;7138;49.246;9.100;2023-06-22T09:07:47;8.25;;;4.38;;
14118;SDS011;7138;49.246;9.100;2023-06-22T09:10:12;9.85;;;4.45;;
14118;SDS011;7138;49.246;9.100;2023-06-22T09:12:39;8.95;;;3.90;;
14118;SDS011;7138;49.246;9.100;2023-06-22T09:15:05;6.68;;;3.90;;
14118;SDS011;7138;49.246;9.100;2023-06-22T09:17:32;9.68;;;4.15;;
14118;SDS011;7138;49.246;9.100;2023-06-22T09:19:59;7.93;;;3.80;;
14118;SDS011;7138;49.246;9.100;2023-06-22T09:22:27;9.18;;;3.70;;
14118;SDS011;7138;49.246;9.100;2023-06-22T09:24:54;6.68;;;3.70;;
14118;SDS011;7138;49.246;9.100;2023-06-22T09:27:20;8.57;;;3.90;;
14118;SDS011;7138;49.246;9.100;2023-06-22T09:29:47;7.10;;;3.90;;
14118;SDS011;7138;49.246;9.100;2023-06-22T09:32:13;8.98;;;4.05;;
14118;SDS011;7138;49.246;9.100;2023-06-22T09:34:39;7.40;;;3.88;;
14118;SDS011;7138;49.246;9.100;2023-06-22T09:37:05;9.52;;;4.25;;
14118;SDS011;7138;49.246;9.100;2023-06-22T09:39:32;9.23;;;3.75;;
14118;SDS011;7138;49.246;9.100;2023-06-22T09:41:58;9.32;;;4.00;;
14118;SDS011;7138;49.246;9.100;2023-06-22T09:44:27;6.63;;;4.13;;
14118;SDS011;7138;49.246;9.100;2023-06-22T09:46:53;6.60;;;4.03;;
14118;SDS011;7138;49.246;9.100;2023-06-22T09:49:19;5.78;;;3.70;;
14118;SDS011;7138;49.246;9.100;2023-06-22T09:51:45;12.73;;;4.20;;
14118;SDS011;7138;49.246;9.100;2023-06-22T09:54:11;6.50;;;4.03;;
14118;SDS011;7138;49.246;9.100;2023-06-22T09:56:38;10.23;;;4.00;;
14118;SDS011;7138;49.246;9.100;2023-06-22T09:59:04;9.98;;;4.05;;
14118;SDS011;7138;49.246;9.100;2023-06-22T10:01:29;12.35;;;4.50;;
14118;SDS011;7138;49.246;9.100;2023-06-22T10:03:55;8.20;;;4.25;;
14118;SDS011;7138;49.246;9.100;2023-06-22T10:06:21;7.82;;;3.75;;
14118;SDS011;7138;49.246;9.100;2023-06-22T10:08:47;6.68;;;4.13;;
14118;SDS011;7138;49.246;9.100;2023-06-22T10:11:15;7.28;;;3.90;;
14118;SDS011;7138;49.246;9.100;2023-06-22T10:13:42;7.93;;;3.83;;
14118;SDS011;7138;49.246;9.100;2023-06-22T10:16:08;9.52;;;3.97;;
14118;SDS011;7138;49.246;9.100;2023-06-22T10:18:33;6.95;;;3.90;;
14118;SDS011;7138;49.246;9.100;2023-06-22T10:20:59;11.30;;;4.90;;
14118;SDS011;7138;49.246;9.100;2023-06-22T10:23:25;7.05;;;3.85;;
14118;SDS011;7138;49.246;9.100;2023-06-22T10:25:51;11.30;;;4.22;;
14118;SDS011;7138;49.246;9.100;2023-06-22T10:28:17;7.93;;;3.85;;
14118;SDS011;7138;49.246;9.100;2023-06-22T10:30:44;6.93;;;3.60;;
14118;SDS011;7138;49.246;9.100;2023-06-22T10:33:10;9.00;;;4.00;;
14118;SDS011;7138;49.246;9.100;2023-06-22T10:35:37;8.70;;;4.13;;
14118;SDS011;7138;49.246;9.100;2023-06-22T10:38:03;11.27;;;3.60;;
14118;SDS011;7138;49.246;9.100;2023-06-22T10:40:30;8.93;;;4.03;;
14118;SDS011;7138;49.246;9.100;2023-06-22T10:42:59;10.60;;;4.07;;
14118;SDS011;7138;49.246;9.100;2023-06-22T10:45:25;11.32;;;4.10;;
14118;SDS011;7138;49.246;9.100;2023-06-22T10:47:53;8.82;;;4.18;;
14118;SDS011;7138;49.246;9.100;2023-06-22T10:50:19;8.70;;;4.28;;
14118;SDS011;7138;49.246;9.100;2023-06-22T10:52:45;7.57;;;4.15;;
14118;SDS011;7138;49.246;9.100;2023-06-22T10:55:11;10.25;;;4.40;;
14118;SDS011;7138;49.246;9.100;2023-06-22T10:57:37;8.82;;;4.00;;
14118;SDS011;7138;49.246;9.100;2023-06-22T11:00:07;7.40;;;4.10;;
14118;SDS011;7138;49.246;9.100;2023-06-22T11:02:34;9.25;;;4.13;;
14118;SDS011;7138;49.246;9.100;2023-06-22T11:05:01;8.25;;;3.92;;
14118;SDS011;7138;49.246;9.100;2023-06-22T11:07:28;8.00;;;4.67;;
14118;SDS011;7138;49.246;9.100;2023-06-22T11:09:54;8.88;;;3.90;;
14118;SDS011;7138;49.246;9.100;2023-06-22T11:12:20;12.15;;;4.25;;
14118;SDS011;7138;49.246;9.100;2023-06-22T11:14:46;8.15;;;3.88;;
14118;SDS011;7138;49.246;9.100;2023-06-22T11:17:12;9.48;;;4.55;;
14118;SDS011;7138;49.246;9.100;2023-06-22T11:19:38;10.00;;;4.05;;
14118;SDS011;7138;49.246;9.100;2023-06-22T11:22:05;10.02;;;4.00;;
14118;SDS011;7138;49.246;9.100;2023-06-22T11:24:31;9.93;;;4.03;;
14118;SDS011;7138;49.246;9.100;2023-06-22T11:26:57;9.93;;;4.10;;
14118;SDS011;7138;49.246;9.100;2023-06-22T11:29:23;11.98;;;4.65;;
14118;SDS011;7138;49.246;9.100;2023-06-22T11:31:49;11.05;;;4.40;;
14118;SDS011;7138;49.246;9.100;2023-06-22T11:34:15;6.45;;;3.80;;
14118;SDS011;7138;49.246;9.100;2023-06-22T11:36:40;8.45;;;4.13;;
14118;SDS011;7138;49.246;9.100;2023-06-22T11:39:08;10.10;;;4.18;;
14118;SDS011;7138;49.246;9.100;2023-06-22T11:41:34;10.32;;;4.20;;
14118;SDS011;7138;49.246;9.100;2023-06-22T11:44:00;6.32;;;3.67;;
14118;SDS011;7138;49.246;9.100;2023-06-22T11:46:26;8.43;;;4.45;;
14118;SDS011;7138;49.246;9.100;2023-06-22T11:48:52;12.70;;;4.50;;
14118;SDS011;7138;49.246;9.100;2023-06-22T11:51:18;9.85;;;3.72;;
14118;SDS011;7138;49.246;9.100;2023-06-22T11:53:44;9.40;;;4.03;;
14118;SDS011;7138;49.246;9.100;2023-06-22T11:56:11;8.80;;;4.00;;
14118;SDS011;7138;49.246;9.100;2023-06-22T11:58:37;10.43;;;4.05;;
14118;SDS011;7138;49.246;9.100;2023-06-22T12:01:03;9.13;;;4.60;;
14118;SDS011;7138;49.246;9.100;2023-06-22T12:03:30;8.65;;;4.38;;
14118;SDS011;7138;49.246;9.100;2023-06-22T12:05:55;7.95;;;4.10;;
14118;SDS011;7138;49.246;9.100;2023-06-22T12:08:21;9.98;;;4.03;;
14118;SDS011;7138;49.246;9.100;2023-06-22T12:10:48;8.25;;;4.28;;
14118;SDS011;7138;49.246;9.100;2023-06-22T12:13:16;11.77;;;4.80;;
14118;SDS011;7138;49.246;9.100;2023-06-22T12:15:42;8.10;;;4.20;;
14118;SDS011;7138;49.246;9.100;2023-06-22T12:18:08;9.63;;;4.28;;
14118;SDS011;7138;49.246;9.100;2023-06-22T12:20:34;8.52;;;4.40;;
14118;SDS011;7138;49.246;9.100;2023-06-22T12:23:01;8.13;;;3.97;;
14118;SDS011;7138;49.246;9.100;2023-06-22T12:25:27;9.90;;;4.13;;
14118;SDS011;7138;49.246;9.100;2023-06-22T12:27:53;8.27;;;4.28;;
14118;SDS011;7138;49.246;9.100;2023-06-22T12:30:20;12.80;;;4.80;;
14118;SDS011;7138;49.246;9.100;2023-06-22T12:32:46;8.43;;;4.10;;
14118;SDS011;7138;49.246;9.100;2023-06-22T12:35:12;6.72;;;3.75;;
14118;SDS011;7138;49.246;9.100;2023-06-22T12:37:39;10.32;;;4.15;;
14118;SDS011;7138;49.246;9.100;2023-06-22T12:40:06;10.43;;;4.07;;
14118;SDS011;7138;49.246;9.100;2023-06-22T12:42:33;10.07;;;4.35;;
14118;SDS011;7138;49.246;9.100;2023-06-22T12:44:59;7.15;;;4.25;;
14118;SDS011;7138;49.246;9.100;2023-06-22T12:47:26;8.98;;;4.53;;
14118;SDS011;7138;49.246;9.100;2023-06-22T12:49:52;7.32;;;4.20;;
14118;SDS011;7138;49.246;9.100;2023-06-22T12:52:18;12.18;;;4.95;;
14118;SDS011;7138;49.246;9.100;2023-06-22T12:54:44;11.70;;;4.05;;
14118;SDS011;7138;49.246;9.100;2023-06-22T12:57:09;11.50;;;4.40;;
14118;SDS011;7138;49.246;9.100;2023-06-22T12:59:35;9.88;;;4.20;;
14118;SDS011;7138;49.246;9.100;2023-06-22T13:02:01;12.05;;;4.65;;
14118;SDS011;7138;49.246;9.100;2023-06-22T13:04:28;11.02;;;4.18;;
14118;SDS011;7138;49.246;9.100;2023-06-22T13:06:54;7.35;;;3.75;;
14118;SDS011;7138;49.246;9.100;2023-06-22T13:09:20;10.60;;;4.80;;
14118;SDS011;7138;49.246;9.100;2023-06-22T13:11:46;9.70;;;4.28;;
14118;SDS011;7138;49.246;9.100;2023-06-22T13:14:12;10.27;;;4.25;;
14118;SDS011;7138;49.246;9.100;2023-06-22T13:16:38;8.25;;;4.13;;
14118;SDS011;7138;49.246;9.100;2023-06-22T13:19:04;9.48;;;4.55;;
14118;SDS011;7138;49.246;9.100;2023-06-22T13:21:31;10.23;;;4.85;;
14118;SDS011;7138;49.246;9.100;2023-06-22T13:23:59;15.45;;;4.55;;
14118;SDS011;7138;49.246;9.100;2023-06-22T13:26:25;10.55;;;4.30;;
14118;SDS011;7138;49.246;9.100;2023-06-22T13:28:51;9.70;;;4.60;;
14118;SDS011;7138;49.246;9.100;2023-06-22T13:31:18;7.50;;;4.55;;
14118;SDS011;7138;49.246;9.100;2023-06-22T13:33:43;11.52;;;5.13;;
14118;SDS011;7138;49.246;9.100;2023-06-22T13:36:12;10.70;;;4.47;;
14118;SDS011;7138;49.246;9.100;2023-06-22T13:38:40;11.07;;;4.63;;
14118;SDS011;7138;49.246;9.100;2023-06-22T13:41:05;13.38;;;4.38;;
14118;SDS011;7138;49.246;9.100;2023-06-22T13:43:31;10.02;;;4.47;;
14118;SDS011;7138;49.246;9.100;2023-06-22T13:45:57;12.60;;;4.50;;
14118;SDS011;7138;49.246;9.100;2023-06-22T13:48:23;9.65;;;4.55;;
14118;SDS011;7138;49.246;9.100;2023-06-22T13:50:50;9.98;;;4.68;;
14118;SDS011;7138;49.246;9.100;2023-06-22T13:53:16;10.70;;;4.25;;
14118;SDS011;7138;49.246;9.100;2023-06-22T13:55:44;9.27;;;4.70;;
14118;SDS011;7138;49.246;9.100;2023-06-22T13:58:09;11.13;;;4.32;;
14118;SDS011;7138;49.246;9.100;2023-06-22T14:00:35;11.90;;;4.85;;
14118;SDS011;7138;49.246;9.100;2023-06-22T14:03:01;8.30;;;4.18;;
14118;SDS011;7138;49.246;9.100;2023-06-22T14:05:27;10.45;;;4.45;;
14118;SDS011;7138;49.246;9.100;2023-06-22T14:07:53;10.57;;;4.30;;
14118;SDS011;7138;49.246;9.100;2023-06-22T14:10:19;10.77;;;4.35;;
14118;SDS011;7138;49.246;9.100;2023-06-22T14:12:46;11.15;;;4.40;;
14118;SDS011;7138;49.246;9.100;2023-06-22T14:15:12;8.70;;;4.30;;
14118;SDS011;7138;49.246;9.100;2023-06-22T14:17:38;13.88;;;4.55;;
14118;SDS011;7138;49.246;9.100;2023-06-22T14:20:04;12.80;;;4.40;;
14118;SDS011;7138;49.246;9.100;2023-06-22T14:22:33;11.95;;;4.45;;
14118;SDS011;7138;49.246;9.100;2023-06-22T14:25:00;11.38;;;4.40;;
14118;SDS011;7138;49.246;9.100;2023-06-22T14:27:26;14.70;;;4.57;;
14118;SDS011;7138;49.246;9.100;2023-06-22T14:29:53;10.05;;;4.32;;
14118;SDS011;7138;49.246;9.100;2023-06-22T14:32:19;10.13;;;4.68;;
14118;SDS011;7138;49.246;9.100;2023-06-22T14:34:45;8.90;;;4.22;;
14118;SDS011;7138;49.246;9.100;2023-06-22T14:37:11;10.07;;;4.80;;
14118;SDS011;7138;49.246;9.100;2023-06-22T14:39:38;8.73;;;4.35;;
14118;SDS011;7138;49.246;9.100;2023-06-22T14:42:04;10.50;;;4.68;;
14118;SDS011;7138;49.246;9.100;2023-06-22T14:44:31;9.90;;;4.45;;
14118;SDS011;7138;49.246;9.100;2023-06-22T14:46:58;14.07;;;4.55;;
14118;SDS011;7138;49.246;9.100;2023-06-22T14:49:24;11.45;;;4.60;;
14118;SDS011;7138;49.246;9.100;2023-06-22T14:51:50;14.15;;;4.63;;
14118;SDS011;7138;49.246;9.100;2023-06-22T14:54:16;13.25;;;4.30;;
14118;SDS011;7138;49.246;9.100;2023-06-22T14:56:42;9.80;;;3.83;;